createdAt,value
2022-11-19T00:01:33.916Z,6.30
2022-11-19T00:04:02.595Z,5.10
2022-11-19T00:06:31.706Z,6.38
2022-11-19T00:08:59.079Z,9.60
2022-11-19T00:11:47.456Z,3.80
2022-11-19T00:14:16.297Z,2.75
2022-11-19T00:16:47.699Z,3.67
2022-11-19T00:21:42.680Z,2.28
2022-11-19T00:24:11.297Z,2.90
2022-11-19T00:26:38.952Z,3.10
2022-11-19T00:29:06.009Z,4.05
2022-11-19T00:31:33.488Z,1.60
2022-11-19T00:34:01.337Z,1.45
2022-11-19T00:36:28.764Z,2.50
2022-11-19T00:38:56.594Z,2.80
2022-11-19T00:41:23.863Z,2.47
2022-11-19T00:43:51.134Z,1.77
2022-11-19T00:46:23.999Z,2.85
2022-11-19T00:48:52.986Z,2.85
2022-11-19T00:51:22.207Z,2.42
2022-11-19T00:53:49.533Z,2.83
2022-11-19T00:56:20.986Z,2.83
2022-11-19T00:58:48.536Z,2.38
2022-11-19T01:01:18.115Z,2.53
2022-11-19T01:03:46.220Z,2.72
2022-11-19T01:06:18.646Z,2.92
2022-11-19T01:08:48.019Z,3.17
2022-11-19T01:11:18.340Z,3.70
2022-11-19T01:13:47.703Z,2.33
2022-11-19T01:16:21.430Z,2.60
2022-11-19T01:18:51.448Z,2.20
2022-11-19T01:21:23.089Z,5.00
2022-11-19T01:23:51.062Z,3.58
2022-11-19T01:26:19.381Z,2.78
2022-11-19T01:28:47.119Z,9.52
2022-11-19T01:31:16.884Z,3.60
2022-11-19T01:33:45.202Z,2.42
2022-11-19T01:36:23.585Z,2.20
2022-11-19T01:38:55.301Z,2.00
2022-11-19T01:41:28.289Z,2.00
2022-11-19T01:44:01.620Z,2.70
2022-11-19T01:46:32.935Z,3.97
2022-11-19T01:49:10.894Z,2.55
2022-11-19T01:51:43.912Z,2.13
2022-11-19T01:54:18.918Z,1.70
2022-11-19T01:56:47.012Z,2.75
2022-11-19T01:59:19.471Z,1.73
2022-11-19T02:01:50.933Z,2.28
2022-11-19T02:04:20.933Z,3.08
2022-11-19T02:06:48.505Z,3.08
2022-11-19T02:09:16.144Z,1.83
2022-11-19T02:12:07.898Z,2.20
2022-11-19T02:14:42.393Z,3.40
2022-11-19T02:17:27.668Z,2.80
2022-11-19T02:20:27.318Z,1.30
2022-11-19T02:23:32.415Z,1.75
2022-11-19T02:26:39.009Z,3.20
2022-11-19T02:29:30.354Z,1.30
2022-11-19T02:32:02.092Z,1.45
2022-11-19T02:35:02.405Z,2.88
2022-11-19T02:37:51.261Z,3.35
2022-11-19T02:40:28.524Z,2.45
2022-11-19T02:43:20.003Z,3.17
2022-11-19T02:48:34.986Z,4.43
2022-11-19T02:51:05.037Z,4.13
2022-11-19T02:53:33.538Z,4.88
2022-11-19T02:56:13.259Z,7.95
2022-11-19T02:59:11.646Z,5.78
2022-11-19T03:02:02.926Z,4.88
2022-11-19T03:07:04.587Z,6.97
2022-11-19T03:09:33.785Z,5.90
2022-11-19T03:12:21.421Z,8.07
2022-11-19T03:15:16.108Z,7.53
2022-11-19T03:18:11.136Z,7.90
2022-11-19T03:20:46.597Z,6.50
2022-11-19T03:23:30.399Z,8.20
2022-11-19T03:26:04.156Z,8.25
2022-11-19T03:28:38.549Z,7.55
2022-11-19T03:31:07.465Z,7.65
2022-11-19T03:33:43.518Z,7.38
2022-11-19T03:36:24.269Z,7.25
2022-11-19T03:38:56.291Z,8.00
2022-11-19T03:41:25.734Z,7.32
2022-11-19T03:43:58.799Z,7.43
2022-11-19T03:46:29.180Z,9.10
2022-11-19T03:48:58.973Z,9.02
2022-11-19T03:51:48.326Z,8.80
2022-11-19T03:54:15.802Z,7.32
2022-11-19T03:56:45.565Z,6.93
2022-11-19T03:59:13.589Z,7.50
2022-11-19T04:01:41.573Z,7.00
2022-11-19T04:04:27.442Z,6.65
2022-11-19T04:06:56.915Z,7.03
2022-11-19T04:09:24.729Z,7.57
2022-11-19T04:14:17.853Z,6.95
2022-11-19T04:16:45.159Z,7.50
2022-11-19T04:19:15.349Z,7.00
2022-11-19T04:21:42.623Z,7.15
2022-11-19T04:24:10.720Z,7.53
2022-11-19T04:26:37.852Z,11.00
2022-11-19T04:29:08.228Z,9.50
2022-11-19T04:31:36.590Z,9.73
2022-11-19T04:34:05.166Z,7.22
2022-11-19T04:36:32.540Z,8.73
2022-11-19T04:39:01.281Z,8.50
2022-11-19T04:41:29.320Z,8.00
2022-11-19T04:43:56.499Z,7.88
2022-11-19T04:46:23.767Z,8.30
2022-11-19T04:48:51.737Z,7.95
2022-11-19T04:51:19.079Z,8.88
2022-11-19T04:53:46.337Z,10.63
2022-11-19T04:56:13.480Z,9.77
2022-11-19T04:58:43.884Z,8.80
2022-11-19T05:01:13.013Z,8.70
2022-11-19T05:03:41.649Z,9.13
2022-11-19T05:06:09.553Z,8.23
2022-11-19T05:08:38.138Z,9.38
2022-11-19T05:11:06.079Z,8.63
2022-11-19T05:13:34.377Z,9.73
2022-11-19T05:16:02.749Z,8.90
2022-11-19T05:18:30.605Z,12.30
2022-11-19T05:20:58.518Z,12.18
2022-11-19T05:23:28.801Z,8.00
2022-11-19T05:26:00.941Z,7.82
2022-11-19T05:28:39.190Z,7.97
2022-11-19T05:31:08.714Z,8.57
2022-11-19T05:33:36.798Z,8.32
2022-11-19T05:36:05.269Z,9.30
2022-11-19T05:38:33.236Z,8.00
2022-11-19T05:41:00.265Z,9.50
2022-11-19T05:43:28.495Z,8.60
2022-11-19T05:46:04.614Z,7.40
2022-11-19T05:48:31.986Z,9.50
2022-11-19T05:50:59.755Z,6.45
2022-11-19T05:53:27.350Z,6.85
2022-11-19T05:55:55.105Z,6.28
2022-11-19T05:58:25.431Z,7.68
2022-11-19T06:00:57.233Z,8.20
2022-11-19T06:03:24.623Z,7.18
2022-11-19T06:05:55.317Z,7.28
2022-11-19T06:08:23.515Z,7.25
2022-11-19T06:10:51.461Z,8.38
2022-11-19T06:13:19.883Z,7.45
2022-11-19T06:15:47.664Z,8.27
2022-11-19T06:18:15.413Z,7.93
2022-11-19T06:20:43.129Z,10.27
2022-11-19T06:23:10.445Z,13.50
2022-11-19T06:25:38.582Z,13.93
2022-11-19T06:28:09.105Z,10.27
2022-11-19T06:30:36.928Z,8.47
2022-11-19T06:33:06.981Z,6.68
2022-11-19T06:35:35.254Z,7.88
2022-11-19T06:38:03.193Z,7.22
2022-11-19T06:40:30.552Z,7.10
2022-11-19T06:42:58.469Z,7.20
2022-11-19T06:45:26.235Z,8.45
2022-11-19T06:47:53.981Z,6.47
2022-11-19T06:50:22.159Z,6.43
2022-11-19T06:52:49.811Z,7.05
2022-11-19T06:55:18.146Z,6.30
2022-11-19T06:57:45.408Z,7.70
2022-11-19T07:00:14.572Z,9.70
2022-11-19T07:02:42.102Z,7.20
2022-11-19T07:05:19.076Z,5.90
2022-11-19T07:07:46.362Z,6.35
2022-11-19T07:10:14.190Z,7.05
2022-11-19T07:12:44.149Z,6.70
2022-11-19T07:15:12.199Z,5.30
2022-11-19T07:17:40.753Z,5.70
2022-11-19T07:20:08.962Z,6.65
2022-11-19T07:22:36.799Z,5.57
2022-11-19T07:25:04.385Z,5.60
2022-11-19T07:27:32.376Z,5.32
2022-11-19T07:29:59.548Z,5.10
2022-11-19T07:32:27.374Z,5.18
2022-11-19T07:34:55.013Z,5.88
2022-11-19T07:37:22.499Z,5.57
2022-11-19T07:39:53.933Z,5.40
2022-11-19T07:45:10.360Z,6.10
2022-11-19T07:47:38.372Z,6.18
2022-11-19T07:50:06.214Z,5.97
2022-11-19T07:52:33.948Z,6.82
2022-11-19T07:55:05.011Z,7.47
2022-11-19T07:57:34.809Z,6.47
2022-11-19T08:00:03.226Z,5.30
2022-11-19T08:02:40.088Z,8.40
2022-11-19T08:05:08.089Z,4.97
2022-11-19T08:07:38.321Z,4.10
2022-11-19T08:10:07.346Z,3.55
2022-11-19T08:12:35.491Z,4.13
2022-11-19T08:15:05.664Z,4.05
2022-11-19T08:17:51.927Z,4.85
2022-11-19T08:20:19.841Z,4.10
2022-11-19T08:22:47.417Z,5.15
2022-11-19T08:25:15.016Z,8.63
2022-11-19T08:27:42.161Z,4.00
2022-11-19T08:30:10.147Z,3.25
2022-11-19T08:32:37.896Z,4.10
2022-11-19T08:35:06.462Z,4.03
2022-11-19T08:37:33.814Z,3.25
2022-11-19T08:40:06.838Z,3.30
2022-11-19T08:42:55.299Z,3.30
2022-11-19T08:45:25.156Z,4.28
2022-11-19T08:47:53.191Z,3.40
2022-11-19T08:50:21.352Z,2.67
2022-11-19T08:53:00.494Z,5.18
2022-11-19T08:55:33.163Z,2.88
2022-11-19T08:58:08.089Z,2.58
2022-11-19T09:00:37.935Z,3.92
2022-11-19T09:03:05.447Z,4.65
2022-11-19T09:05:33.198Z,4.43
2022-11-19T09:08:00.313Z,3.30
2022-11-19T09:10:28.249Z,3.60
2022-11-19T09:12:55.923Z,4.22
2022-11-19T09:15:26.842Z,4.20
2022-11-19T09:17:56.772Z,3.33
2022-11-19T09:20:23.945Z,3.10
2022-11-19T09:22:52.097Z,3.17
2022-11-19T09:25:19.379Z,2.92
2022-11-19T09:27:49.434Z,3.90
2022-11-19T09:30:17.319Z,4.07
2022-11-19T09:32:45.424Z,3.55
2022-11-19T09:35:15.633Z,3.33
2022-11-19T09:37:43.551Z,4.75
2022-11-19T09:40:21.899Z,2.72
2022-11-19T09:43:15.892Z,3.72
2022-11-19T09:45:43.132Z,2.50
2022-11-19T09:48:10.171Z,4.50
2022-11-19T09:51:04.362Z,2.50
2022-11-19T09:53:44.350Z,3.55
2022-11-19T09:56:18.693Z,5.20
2022-11-19T09:58:46.630Z,2.92
2022-11-19T10:01:22.917Z,2.50
2022-11-19T10:03:53.950Z,2.33
2022-11-19T10:07:11.452Z,3.00
2022-11-19T10:10:12.347Z,2.65
2022-11-19T10:13:11.879Z,2.60
2022-11-19T10:16:18.665Z,1.80
2022-11-19T10:19:28.540Z,1.98
2022-11-19T10:22:30.140Z,2.65
2022-11-19T10:25:26.114Z,2.03
2022-11-19T10:28:04.289Z,3.53
2022-11-19T10:30:32.219Z,3.15
2022-11-19T10:33:12.446Z,1.80
2022-11-19T10:35:48.568Z,2.25
2022-11-19T10:38:37.944Z,1.90
2022-11-19T10:42:07.831Z,1.60
2022-11-19T10:44:53.054Z,3.30
2022-11-19T10:47:59.052Z,5.28
2022-11-19T10:50:27.273Z,2.33
2022-11-19T10:53:07.482Z,2.40
2022-11-19T10:55:57.715Z,2.88
2022-11-19T10:58:35.555Z,3.00
2022-11-19T11:01:05.997Z,2.90
2022-11-19T11:03:49.708Z,5.30
2022-11-19T11:06:17.228Z,2.03
2022-11-19T11:08:54.070Z,1.92
2022-11-19T11:11:58.340Z,1.70
2022-11-19T11:14:47.616Z,2.70
2022-11-19T11:17:25.480Z,1.92
2022-11-19T11:20:03.892Z,2.30
2022-11-19T11:22:32.277Z,3.03
2022-11-19T11:25:07.210Z,1.98
2022-11-19T11:27:36.077Z,1.77
2022-11-19T11:30:13.157Z,5.88
2022-11-19T11:32:42.239Z,4.03
2022-11-19T11:35:29.504Z,1.63
2022-11-19T11:37:57.455Z,1.42
2022-11-19T11:40:26.195Z,1.73
2022-11-19T11:42:54.535Z,2.97
2022-11-19T11:45:35.092Z,2.00
2022-11-19T11:48:09.309Z,11.50
2022-11-19T11:50:37.457Z,11.63
2022-11-19T11:53:15.293Z,4.75
2022-11-19T11:55:42.545Z,3.17
2022-11-19T11:58:34.952Z,3.63
2022-11-19T12:01:16.068Z,6.20
2022-11-19T12:04:01.185Z,7.57
2022-11-19T12:06:48.259Z,7.75
2022-11-19T12:09:21.558Z,5.75
2022-11-19T12:11:58.796Z,2.85
2022-11-19T12:14:50.962Z,3.20
2022-11-19T12:17:21.491Z,4.63
2022-11-19T12:20:03.919Z,3.03
2022-11-19T12:22:57.996Z,7.80
2022-11-19T12:25:47.903Z,3.80
2022-11-19T12:28:21.287Z,4.18
2022-11-19T12:31:11.672Z,3.97
2022-11-19T12:33:58.251Z,3.20
2022-11-19T12:36:45.337Z,2.92
2022-11-19T12:39:40.764Z,3.03
2022-11-19T12:42:14.321Z,3.28
2022-11-19T12:44:59.898Z,4.75
2022-11-19T12:47:27.081Z,5.57
2022-11-19T12:50:23.686Z,5.05
2022-11-19T12:53:23.264Z,13.15
2022-11-19T12:56:03.826Z,5.93
2022-11-19T12:58:39.544Z,4.68
2022-11-19T13:01:17.578Z,21.15
2022-11-19T13:03:59.962Z,6.60
2022-11-19T13:06:37.170Z,5.47
2022-11-19T13:09:13.564Z,15.00
2022-11-19T13:11:49.694Z,4.50
2022-11-19T13:14:30.609Z,4.50
2022-11-19T13:17:00.581Z,2.88
2022-11-19T13:19:37.008Z,3.40
2022-11-19T13:22:12.751Z,3.97
2022-11-19T13:25:04.021Z,4.07
2022-11-19T13:30:07.030Z,6.22
2022-11-19T13:33:03.300Z,9.57
2022-11-19T13:36:09.391Z,13.20
2022-11-19T13:39:12.726Z,8.32
2022-11-19T13:42:14.032Z,7.38
2022-11-19T13:44:41.933Z,4.65
2022-11-19T13:47:42.363Z,5.40
2022-11-19T13:50:18.863Z,3.33
2022-11-19T13:53:04.186Z,4.68
2022-11-19T13:55:35.662Z,5.35
2022-11-19T13:58:16.389Z,8.20
2022-11-19T14:01:08.075Z,3.85
2022-11-19T14:03:44.279Z,5.63
2022-11-19T14:06:32.180Z,8.80
2022-11-19T14:09:38.320Z,13.82
2022-11-19T14:12:12.209Z,11.63
2022-11-19T14:14:58.283Z,19.08
2022-11-19T14:17:46.538Z,22.63
2022-11-19T14:20:52.629Z,14.98
2022-11-19T14:23:56.884Z,8.63
2022-11-19T14:26:53.751Z,16.10
2022-11-19T14:29:27.046Z,16.00
2022-11-19T14:32:00.910Z,10.93
2022-11-19T14:34:31.422Z,13.90
2022-11-19T14:37:03.396Z,13.35
2022-11-19T14:39:40.238Z,13.35
2022-11-19T14:42:20.419Z,12.85
2022-11-19T14:45:06.029Z,15.23
2022-11-19T14:47:39.259Z,13.65
2022-11-19T14:50:27.852Z,14.38
2022-11-19T14:52:58.422Z,19.95
2022-11-19T14:55:31.651Z,15.63
2022-11-19T14:58:05.582Z,19.25
2022-11-19T15:00:39.262Z,24.17
2022-11-19T15:03:15.948Z,12.43
2022-11-19T15:05:45.024Z,7.90
2022-11-19T15:08:18.642Z,10.02
2022-11-19T15:11:03.213Z,8.55
2022-11-19T15:13:36.199Z,8.52
2022-11-19T15:16:10.779Z,8.25
2022-11-19T15:18:41.028Z,8.98
2022-11-19T15:21:45.548Z,13.98
2022-11-19T15:24:24.583Z,10.43
2022-11-19T15:27:07.595Z,12.55
2022-11-19T15:29:53.035Z,10.52
2022-11-19T15:32:45.175Z,8.23
2022-11-19T15:35:18.471Z,12.15
2022-11-19T15:37:59.707Z,14.40
2022-11-19T15:40:30.299Z,82.72
2022-11-19T15:43:08.913Z,35.53
2022-11-19T15:45:52.484Z,24.02
2022-11-19T15:48:37.839Z,19.20
2022-11-19T15:51:07.981Z,8.55
2022-11-19T15:53:35.929Z,9.38
2022-11-19T15:56:07.826Z,9.10
2022-11-19T15:58:47.322Z,19.15
2022-11-19T16:01:17.470Z,11.15
2022-11-19T16:03:45.530Z,21.05
2022-11-19T16:06:25.714Z,64.60
2022-11-19T16:09:05.033Z,43.20
2022-11-19T16:11:56.234Z,29.90
2022-11-19T16:14:48.227Z,23.05
2022-11-19T16:17:32.948Z,29.92
2022-11-19T16:20:11.253Z,18.85
2022-11-19T16:22:43.573Z,14.93
2022-11-19T16:25:24.889Z,12.10
2022-11-19T16:27:57.210Z,11.27
2022-11-19T16:30:30.209Z,17.70
2022-11-19T16:33:01.522Z,14.50
2022-11-19T16:35:34.204Z,17.08
2022-11-19T16:38:02.198Z,13.75
2022-11-19T16:40:49.843Z,13.45
2022-11-19T16:43:19.182Z,11.27
2022-11-19T16:45:47.105Z,22.02
2022-11-19T16:48:52.602Z,19.85
2022-11-19T16:51:53.394Z,20.00
2022-11-19T16:54:42.710Z,23.23
2022-11-19T16:57:12.883Z,22.27
2022-11-19T16:59:52.254Z,18.05
2022-11-19T17:02:23.002Z,22.92
2022-11-19T17:04:54.192Z,21.57
2022-11-19T17:07:33.014Z,13.77
2022-11-19T17:10:29.386Z,12.48
2022-11-19T17:13:02.853Z,11.20
2022-11-19T17:15:34.971Z,14.18
2022-11-19T17:18:34.778Z,12.45
2022-11-19T17:21:21.184Z,8.05
2022-11-19T17:23:50.888Z,10.52
2022-11-19T17:26:27.488Z,6.93
2022-11-19T17:29:22.912Z,7.68
2022-11-19T17:31:59.486Z,14.05
2022-11-19T17:34:26.571Z,10.50
2022-11-19T17:36:53.784Z,8.98
2022-11-19T17:39:25.255Z,11.98
2022-11-19T17:42:14.159Z,13.85
2022-11-19T17:44:43.004Z,13.23
2022-11-19T17:47:23.803Z,21.55
2022-11-19T17:49:52.987Z,16.98
2022-11-19T17:52:28.805Z,8.38
2022-11-19T17:54:59.137Z,7.28
2022-11-19T17:57:26.552Z,9.75
2022-11-19T17:59:53.827Z,8.85
2022-11-19T18:02:21.935Z,15.02
2022-11-19T18:04:49.977Z,12.15
2022-11-19T18:07:21.584Z,12.82
2022-11-19T18:09:48.787Z,12.02
2022-11-19T18:12:18.798Z,11.73
2022-11-19T18:14:47.100Z,12.88
2022-11-19T18:17:15.931Z,14.82
2022-11-19T18:19:44.970Z,18.20
2022-11-19T18:22:20.249Z,9.80
2022-11-19T18:24:49.052Z,12.38
2022-11-19T18:27:17.561Z,13.15
2022-11-19T18:29:45.649Z,6.00
2022-11-19T18:32:16.373Z,6.13
2022-11-19T18:34:44.949Z,8.52
2022-11-19T18:37:13.475Z,6.03
2022-11-19T18:39:40.708Z,8.18
2022-11-19T18:42:14.962Z,6.60
2022-11-19T18:44:43.607Z,5.53
2022-11-19T18:47:15.531Z,5.80
2022-11-19T18:49:43.042Z,8.55
2022-11-19T18:52:25.037Z,6.45
2022-11-19T18:54:52.584Z,13.15
2022-11-19T18:57:19.864Z,6.13
2022-11-19T18:59:46.953Z,10.02
2022-11-19T19:02:14.308Z,7.97
2022-11-19T19:04:42.841Z,10.85
2022-11-19T19:07:10.439Z,8.95
2022-11-19T19:09:37.674Z,10.77
2022-11-19T19:12:17.904Z,10.00
2022-11-19T19:14:47.519Z,8.43
2022-11-19T19:17:16.116Z,8.23
2022-11-19T19:19:47.337Z,9.10
2022-11-19T19:22:16.393Z,8.10
2022-11-19T19:24:43.578Z,10.95
2022-11-19T19:27:12.075Z,9.40
2022-11-19T19:29:40.048Z,10.48
2022-11-19T19:32:09.137Z,10.77
2022-11-19T19:34:37.165Z,10.70
2022-11-19T19:37:05.439Z,9.32
2022-11-19T19:39:32.578Z,12.80
2022-11-19T19:42:00.864Z,16.13
2022-11-19T19:44:28.571Z,14.52
2022-11-19T19:46:55.822Z,17.98
2022-11-19T19:49:24.418Z,14.50
2022-11-19T19:51:53.334Z,13.52
2022-11-19T19:54:22.429Z,9.52
2022-11-19T19:56:53.876Z,10.48
2022-11-19T19:59:21.877Z,8.93
2022-11-19T20:01:50.880Z,8.48
2022-11-19T20:04:24.370Z,8.40
2022-11-19T20:06:55.156Z,12.27
2022-11-19T20:09:23.724Z,8.73
2022-11-19T20:11:51.841Z,12.02
2022-11-19T20:14:19.070Z,16.75
2022-11-19T20:16:47.126Z,10.45
2022-11-19T20:19:15.324Z,9.02
2022-11-19T20:21:43.280Z,9.25
2022-11-19T20:24:13.619Z,8.68
2022-11-19T20:26:46.047Z,9.80
2022-11-19T20:29:14.328Z,10.18
2022-11-19T20:31:49.102Z,13.57
2022-11-19T20:34:16.924Z,17.75
2022-11-19T20:36:45.136Z,19.02
2022-11-19T20:39:13.320Z,26.55
2022-11-19T20:41:58.786Z,21.85
2022-11-19T20:44:26.644Z,23.48
2022-11-19T20:47:03.490Z,25.02
2022-11-19T20:49:36.749Z,24.55
2022-11-19T20:52:04.545Z,27.58
2022-11-19T20:54:33.006Z,32.45
2022-11-19T20:57:00.991Z,29.30
2022-11-19T20:59:29.311Z,31.85
2022-11-19T21:01:57.466Z,25.13
2022-11-19T21:04:27.487Z,31.45
2022-11-19T21:06:54.985Z,32.72
2022-11-19T21:09:24.064Z,28.90
2022-11-19T21:11:52.404Z,28.25
2022-11-19T21:14:19.750Z,37.67
2022-11-19T21:16:47.306Z,36.38
2022-11-19T21:19:14.523Z,29.52
2022-11-19T21:21:42.656Z,32.95
2022-11-19T21:24:10.871Z,32.40
2022-11-19T21:26:38.544Z,23.45
2022-11-19T21:29:07.310Z,25.30
2022-11-19T21:31:45.260Z,21.70
2022-11-19T21:34:19.334Z,15.88
2022-11-19T21:36:49.807Z,15.85
2022-11-19T21:39:19.195Z,13.13
2022-11-19T21:41:46.781Z,17.27
2022-11-19T21:44:21.550Z,19.15
2022-11-19T21:46:54.437Z,23.83
2022-11-19T21:49:22.903Z,26.80
2022-11-19T21:51:52.092Z,21.30
2022-11-19T21:54:24.940Z,19.63
2022-11-19T21:56:57.352Z,14.60
2022-11-19T21:59:24.655Z,13.85
2022-11-19T22:01:54.683Z,16.10
2022-11-19T22:04:21.854Z,18.00
2022-11-19T22:06:49.106Z,14.13
2022-11-19T22:09:16.153Z,18.13
2022-11-19T22:11:45.045Z,11.95
2022-11-19T22:14:12.686Z,16.70
2022-11-19T22:16:42.228Z,12.45
2022-11-19T22:19:12.144Z,15.65
2022-11-19T22:21:40.563Z,14.05
2022-11-19T22:24:12.821Z,16.65
2022-11-19T22:26:40.057Z,16.23
2022-11-19T22:29:07.181Z,15.25
2022-11-19T22:31:34.310Z,12.65
2022-11-19T22:34:01.392Z,11.57
2022-11-19T22:36:31.556Z,9.45
2022-11-19T22:38:59.827Z,10.45
2022-11-19T22:41:27.193Z,15.10
2022-11-19T22:43:54.407Z,14.48
2022-11-19T22:46:22.191Z,9.85
2022-11-19T22:48:49.544Z,10.27
2022-11-19T22:51:23.701Z,10.30
2022-11-19T22:53:52.820Z,7.07
2022-11-19T22:56:23.049Z,8.10
2022-11-19T22:58:50.754Z,9.55
2022-11-19T23:01:24.250Z,9.90
2022-11-19T23:03:52.795Z,14.00
2022-11-19T23:06:20.602Z,14.13
2022-11-19T23:08:48.820Z,13.55
2022-11-19T23:11:38.278Z,13.27
2022-11-19T23:14:11.652Z,14.25
2022-11-19T23:16:39.674Z,18.63
2022-11-19T23:19:07.873Z,19.60
2022-11-19T23:21:35.176Z,12.52
2022-11-19T23:24:02.999Z,21.90
2022-11-19T23:26:32.023Z,16.20
2022-11-19T23:28:59.779Z,14.40
2022-11-19T23:31:35.609Z,24.13
2022-11-19T23:34:02.829Z,20.90
2022-11-19T23:36:36.508Z,15.60
2022-11-19T23:39:05.524Z,12.25
2022-11-19T23:41:33.914Z,11.70
2022-11-19T23:44:01.972Z,12.82
2022-11-19T23:46:32.093Z,14.13
2022-11-19T23:49:00.282Z,14.43
2022-11-19T23:51:31.011Z,11.40
2022-11-19T23:53:59.028Z,12.07
2022-11-19T23:56:27.294Z,11.82
2022-11-19T23:58:54.807Z,11.13
